sensor_id;sensor_type;location;lat;lon;timestamp;pressure;altitude;pressure_sealevel;temperature;humidity
76730;BME280;65653;53.106;18.046;2024-03-29T00:01:36;98999.69;;;8.08;80.29
76730;BME280;65653;53.106;18.046;2024-03-29T00:04:03;99004.44;;;8.03;80.60
76730;BME280;65653;53.106;18.046;2024-03-29T00:06:29;99010.44;;;7.98;80.97
76730;BME280;65653;53.106;18.046;2024-03-29T00:08:55;99018.02;;;7.91;81.23
76730;BME280;65653;53.106;18.046;2024-03-29T00:11:22;99019.71;;;7.85;81.51
76730;BME280;65653;53.106;18.046;2024-03-29T00:13:48;99027.83;;;7.80;81.85
76730;BME280;65653;53.106;18.046;2024-03-29T00:16:15;99038.14;;;7.78;81.95
76730;BME280;65653;53.106;18.046;2024-03-29T00:18:41;99045.41;;;7.72;82.34
76730;BME280;65653;53.106;18.046;2024-03-29T00:21:08;99049.78;;;7.72;82.45
76730;BME280;65653;53.106;18.046;2024-03-29T00:23:34;99055.64;;;7.71;82.52
76730;BME280;65653;53.106;18.046;2024-03-29T00:26:01;99056.36;;;7.67;82.64
76730;BME280;65653;53.106;18.046;2024-03-29T00:28:27;99063.04;;;7.64;82.82
76730;BME280;65653;53.106;18.046;2024-03-29T00:30:53;99074.45;;;7.63;82.89
76730;BME280;65653;53.106;18.046;2024-03-29T00:33:20;99077.30;;;7.62;83.01
76730;BME280;65653;53.106;18.046;2024-03-29T00:35:46;99081.58;;;7.62;83.02
76730;BME280;65653;53.106;18.046;2024-03-29T00:38:14;99087.21;;;7.57;83.08
76730;BME280;65653;53.106;18.046;2024-03-29T00:40:41;99088.15;;;7.52;83.40
76730;BME280;65653;53.106;18.046;2024-03-29T00:43:07;99098.58;;;7.48;83.41
76730;BME280;65653;53.106;18.046;2024-03-29T00:45:34;99105.09;;;7.43;83.87
76730;BME280;65653;53.106;18.046;2024-03-29T00:48:00;99119.10;;;7.41;84.08
76730;BME280;65653;53.106;18.046;2024-03-29T00:50:26;99119.59;;;7.39;84.21
76730;BME280;65653;53.106;18.046;2024-03-29T00:52:53;99122.64;;;7.38;84.36
76730;BME280;65653;53.106;18.046;2024-03-29T00:55:20;99125.45;;;7.36;84.32
76730;BME280;65653;53.106;18.046;2024-03-29T00:57:46;99137.22;;;7.31;84.60
76730;BME280;65653;53.106;18.046;2024-03-29T01:00:13;99135.02;;;7.27;84.87
76730;BME280;65653;53.106;18.046;2024-03-29T01:02:40;99139.09;;;7.25;84.91
76730;BME280;65653;53.106;18.046;2024-03-29T01:05:06;99144.08;;;7.19;85.10
76730;BME280;65653;53.106;18.046;2024-03-29T01:07:34;99146.14;;;7.15;85.33
76730;BME280;65653;53.106;18.046;2024-03-29T01:10:00;99150.48;;;7.11;85.45
76730;BME280;65653;53.106;18.046;2024-03-29T01:12:27;99152.54;;;7.08;85.36
76730;BME280;65653;53.106;18.046;2024-03-29T01:14:53;99165.52;;;7.03;85.63
76730;BME280;65653;53.106;18.046;2024-03-29T01:17:20;99169.74;;;6.98;85.87
76730;BME280;65653;53.106;18.046;2024-03-29T01:19:46;99178.40;;;6.94;85.96
76730;BME280;65653;53.106;18.046;2024-03-29T01:22:12;99188.11;;;6.90;86.22
76730;BME280;65653;53.106;18.046;2024-03-29T01:24:39;99189.19;;;6.87;86.19
76730;BME280;65653;53.106;18.046;2024-03-29T01:27:05;99191.29;;;6.84;86.44
76730;BME280;65653;53.106;18.046;2024-03-29T01:29:33;99192.83;;;6.79;86.61
76730;BME280;65653;53.106;18.046;2024-03-29T01:31:59;99206.46;;;6.76;86.99
76730;BME280;65653;53.106;18.046;2024-03-29T01:34:25;99217.79;;;6.72;87.25
76730;BME280;65653;53.106;18.046;2024-03-29T01:36:52;99215.94;;;6.69;87.59
76730;BME280;65653;53.106;18.046;2024-03-29T01:39:18;99219.29;;;6.66;87.80
76730;BME280;65653;53.106;18.046;2024-03-29T01:41:47;99221.45;;;6.63;88.11
76730;BME280;65653;53.106;18.046;2024-03-29T01:44:14;99232.58;;;6.62;88.28
76730;BME280;65653;53.106;18.046;2024-03-29T01:46:41;99245.10;;;6.62;88.36
76730;BME280;65653;53.106;18.046;2024-03-29T01:49:08;99253.11;;;6.58;88.51
76730;BME280;65653;53.106;18.046;2024-03-29T01:51:39;99263.20;;;6.57;88.57
76730;BME280;65653;53.106;18.046;2024-03-29T01:54:06;99267.22;;;6.57;88.59
76730;BME280;65653;53.106;18.046;2024-03-29T01:56:35;99269.67;;;6.56;88.51
76730;BME280;65653;53.106;18.046;2024-03-29T01:59:03;99271.20;;;6.55;88.31
76730;BME280;65653;53.106;18.046;2024-03-29T02:01:30;99280.25;;;6.52;88.33
76730;BME280;65653;53.106;18.046;2024-03-29T02:03:57;99287.41;;;6.49;88.54
76730;BME280;65653;53.106;18.046;2024-03-29T02:06:23;99291.15;;;6.50;88.55
76730;BME280;65653;53.106;18.046;2024-03-29T02:08:52;99299.02;;;6.47;88.49
76730;BME280;65653;53.106;18.046;2024-03-29T02:11:20;99299.43;;;6.46;88.69
76730;BME280;65653;53.106;18.046;2024-03-29T02:13:48;99298.89;;;6.43;88.67
76730;BME280;65653;53.106;18.046;2024-03-29T02:16:16;99307.14;;;6.43;88.69
76730;BME280;65653;53.106;18.046;2024-03-29T02:18:42;99313.31;;;6.43;88.47
76730;BME280;65653;53.106;18.046;2024-03-29T02:21:08;99314.52;;;6.46;88.30
76730;BME280;65653;53.106;18.046;2024-03-29T02:23:38;99321.23;;;6.46;88.17
76730;BME280;65653;53.106;18.046;2024-03-29T02:26:07;99326.30;;;6.43;88.19
76730;BME280;65653;53.106;18.046;2024-03-29T02:28:33;99321.70;;;6.38;88.26
76730;BME280;65653;53.106;18.046;2024-03-29T02:30:59;99332.01;;;6.35;88.49
76730;BME280;65653;53.106;18.046;2024-03-29T02:33:26;99336.38;;;6.33;88.62
76730;BME280;65653;53.106;18.046;2024-03-29T02:35:52;99334.44;;;6.31;88.69
76730;BME280;65653;53.106;18.046;2024-03-29T02:38:19;99329.27;;;6.26;88.83
76730;BME280;65653;53.106;18.046;2024-03-29T02:40:46;99333.50;;;6.23;89.03
76730;BME280;65653;53.106;18.046;2024-03-29T02:43:12;99337.05;;;6.21;89.01
76730;BME280;65653;53.106;18.046;2024-03-29T02:45:39;99337.77;;;6.20;89.19
76730;BME280;65653;53.106;18.046;2024-03-29T02:48:06;99337.85;;;6.20;89.22
76730;BME280;65653;53.106;18.046;2024-03-29T02:50:32;99344.23;;;6.17;89.35
76730;BME280;65653;53.106;18.046;2024-03-29T02:52:59;99345.24;;;6.15;89.47
76730;BME280;65653;53.106;18.046;2024-03-29T02:55:25;99352.94;;;6.12;89.52
76730;BME280;65653;53.106;18.046;2024-03-29T02:57:52;99356.07;;;6.08;89.80
76730;BME280;65653;53.106;18.046;2024-03-29T03:00:18;99357.92;;;6.07;90.06
76730;BME280;65653;53.106;18.046;2024-03-29T03:02:45;99361.48;;;6.07;89.99
76730;BME280;65653;53.106;18.046;2024-03-29T03:05:11;99359.77;;;6.06;90.04
76730;BME280;65653;53.106;18.046;2024-03-29T03:07:37;99361.64;;;6.07;90.15
76730;BME280;65653;53.106;18.046;2024-03-29T03:10:23;99361.44;;;6.07;90.08
76730;BME280;65653;53.106;18.046;2024-03-29T03:13:07;99361.99;;;6.07;90.07
76730;BME280;65653;53.106;18.046;2024-03-29T03:15:34;99365.06;;;6.03;90.09
76730;BME280;65653;53.106;18.046;2024-03-29T03:18:00;99366.71;;;6.04;90.24
76730;BME280;65653;53.106;18.046;2024-03-29T03:20:27;99370.18;;;6.05;90.10
76730;BME280;65653;53.106;18.046;2024-03-29T03:22:57;99369.08;;;6.05;90.13
76730;BME280;65653;53.106;18.046;2024-03-29T03:25:27;99375.27;;;6.03;90.27
76730;BME280;65653;53.106;18.046;2024-03-29T03:27:53;99376.83;;;6.01;90.52
76730;BME280;65653;53.106;18.046;2024-03-29T03:30:21;99384.50;;;5.98;90.62
76730;BME280;65653;53.106;18.046;2024-03-29T03:32:49;99384.38;;;5.95;90.77
76730;BME280;65653;53.106;18.046;2024-03-29T03:35:16;99384.19;;;5.90;90.81
76730;BME280;65653;53.106;18.046;2024-03-29T03:37:42;99383.08;;;5.86;91.12
76730;BME280;65653;53.106;18.046;2024-03-29T03:40:09;99383.61;;;5.85;91.29
76730;BME280;65653;53.106;18.046;2024-03-29T03:42:35;99380.80;;;5.82;91.34
76730;BME280;65653;53.106;18.046;2024-03-29T03:45:02;99383.46;;;5.81;91.60
76730;BME280;65653;53.106;18.046;2024-03-29T03:47:30;99388.60;;;5.84;91.46
76730;BME280;65653;53.106;18.046;2024-03-29T03:49:56;99386.17;;;5.86;91.39
76730;BME280;65653;53.106;18.046;2024-03-29T03:52:22;99385.42;;;5.85;91.39
76730;BME280;65653;53.106;18.046;2024-03-29T03:54:49;99387.77;;;5.86;91.21
76730;BME280;65653;53.106;18.046;2024-03-29T03:57:16;99391.02;;;5.85;91.14
76730;BME280;65653;53.106;18.046;2024-03-29T03:59:42;99394.79;;;5.83;91.11
76730;BME280;65653;53.106;18.046;2024-03-29T04:02:09;99401.39;;;5.82;91.26
76730;BME280;65653;53.106;18.046;2024-03-29T04:04:36;99395.05;;;5.81;91.05
76730;BME280;65653;53.106;18.046;2024-03-29T04:07:02;99389.30;;;5.80;91.04
76730;BME280;65653;53.106;18.046;2024-03-29T04:09:29;99388.01;;;5.78;90.86
76730;BME280;65653;53.106;18.046;2024-03-29T04:11:55;99390.91;;;5.72;91.18
76730;BME280;65653;53.106;18.046;2024-03-29T04:14:21;99399.66;;;5.70;91.36
76730;BME280;65653;53.106;18.046;2024-03-29T04:16:48;99404.89;;;5.69;91.57
76730;BME280;65653;53.106;18.046;2024-03-29T04:19:14;99407.46;;;5.70;91.59
76730;BME280;65653;53.106;18.046;2024-03-29T04:21:40;99409.20;;;5.67;91.33
76730;BME280;65653;53.106;18.046;2024-03-29T04:24:07;99408.59;;;5.61;91.64
76730;BME280;65653;53.106;18.046;2024-03-29T04:26:36;99405.05;;;5.56;91.84
76730;BME280;65653;53.106;18.046;2024-03-29T04:29:03;99407.66;;;5.54;92.10
76730;BME280;65653;53.106;18.046;2024-03-29T04:31:29;99409.09;;;5.52;92.25
76730;BME280;65653;53.106;18.046;2024-03-29T04:33:56;99414.57;;;5.49;92.33
76730;BME280;65653;53.106;18.046;2024-03-29T04:36:22;99412.06;;;5.46;92.52
76730;BME280;65653;53.106;18.046;2024-03-29T04:38:49;99420.35;;;5.40;92.86
76730;BME280;65653;53.106;18.046;2024-03-29T04:41:16;99431.76;;;5.38;93.39
76730;BME280;65653;53.106;18.046;2024-03-29T04:43:43;99433.91;;;5.40;93.59
76730;BME280;65653;53.106;18.046;2024-03-29T04:46:11;99439.09;;;5.40;93.40
76730;BME280;65653;53.106;18.046;2024-03-29T04:48:42;99437.54;;;5.39;93.51
76730;BME280;65653;53.106;18.046;2024-03-29T04:51:09;99439.71;;;5.43;93.65
76730;BME280;65653;53.106;18.046;2024-03-29T04:53:36;99438.29;;;5.46;93.56
76730;BME280;65653;53.106;18.046;2024-03-29T04:56:05;99438.77;;;5.49;93.41
76730;BME280;65653;53.106;18.046;2024-03-29T04:58:32;99438.52;;;5.51;93.28
76730;BME280;65653;53.106;18.046;2024-03-29T05:00:58;99438.63;;;5.54;92.90
76730;BME280;65653;53.106;18.046;2024-03-29T05:03:25;99440.26;;;5.79;92.55
76730;BME280;65653;53.106;18.046;2024-03-29T05:05:53;99446.88;;;5.84;91.93
76730;BME280;65653;53.106;18.046;2024-03-29T05:08:20;99455.08;;;5.76;92.51
76730;BME280;65653;53.106;18.046;2024-03-29T05:10:49;99449.95;;;5.76;92.35
76730;BME280;65653;53.106;18.046;2024-03-29T05:13:21;99442.41;;;5.78;92.56
76730;BME280;65653;53.106;18.046;2024-03-29T05:15:48;99446.77;;;5.85;92.14
76730;BME280;65653;53.106;18.046;2024-03-29T05:18:14;99452.55;;;5.90;92.21
76730;BME280;65653;53.106;18.046;2024-03-29T05:20:41;99458.52;;;6.07;91.72
76730;BME280;65653;53.106;18.046;2024-03-29T05:23:14;99457.23;;;6.17;91.09
76730;BME280;65653;53.106;18.046;2024-03-29T05:25:41;99445.63;;;6.13;91.22
76730;BME280;65653;53.106;18.046;2024-03-29T05:28:09;99438.08;;;6.12;91.40
76730;BME280;65653;53.106;18.046;2024-03-29T05:30:35;99436.77;;;6.13;91.57
76730;BME280;65653;53.106;18.046;2024-03-29T05:33:05;99434.83;;;6.17;91.77
76730;BME280;65653;53.106;18.046;2024-03-29T05:35:33;99437.04;;;6.22;91.44
76730;BME280;65653;53.106;18.046;2024-03-29T05:38:00;99443.65;;;6.29;91.32
76730;BME280;65653;53.106;18.046;2024-03-29T05:40:26;99448.31;;;6.35;91.09
76730;BME280;65653;53.106;18.046;2024-03-29T05:42:54;99457.63;;;6.41;90.88
76730;BME280;65653;53.106;18.046;2024-03-29T05:45:28;99458.23;;;6.49;90.65
76730;BME280;65653;53.106;18.046;2024-03-29T05:47:57;99459.86;;;6.59;90.33
76730;BME280;65653;53.106;18.046;2024-03-29T05:50:25;99465.95;;;6.66;89.98
76730;BME280;65653;53.106;18.046;2024-03-29T05:52:52;99470.83;;;6.76;89.64
76730;BME280;65653;53.106;18.046;2024-03-29T05:55:18;99482.17;;;6.84;89.21
76730;BME280;65653;53.106;18.046;2024-03-29T05:57:45;99492.60;;;6.93;88.96
76730;BME280;65653;53.106;18.046;2024-03-29T06:00:13;99489.21;;;7.02;88.52
76730;BME280;65653;53.106;18.046;2024-03-29T06:02:43;99488.10;;;7.11;88.06
76730;BME280;65653;53.106;18.046;2024-03-29T06:05:14;99490.63;;;7.21;87.63
76730;BME280;65653;53.106;18.046;2024-03-29T06:07:40;99499.98;;;7.30;87.24
76730;BME280;65653;53.106;18.046;2024-03-29T06:10:07;99504.26;;;7.39;86.64
76730;BME280;65653;53.106;18.046;2024-03-29T06:12:36;99510.85;;;7.48;86.28
76730;BME280;65653;53.106;18.046;2024-03-29T06:15:07;99513.42;;;7.58;85.87
76730;BME280;65653;53.106;18.046;2024-03-29T06:17:52;99512.08;;;7.69;85.17
76730;BME280;65653;53.106;18.046;2024-03-29T06:20:19;99510.95;;;7.78;84.64
76730;BME280;65653;53.106;18.046;2024-03-29T06:22:45;99497.02;;;7.88;84.03
76730;BME280;65653;53.106;18.046;2024-03-29T06:25:12;99500.16;;;8.00;83.71
76730;BME280;65653;53.106;18.046;2024-03-29T06:27:38;99509.45;;;8.08;82.88
76730;BME280;65653;53.106;18.046;2024-03-29T06:30:06;99502.71;;;8.16;82.19
76730;BME280;65653;53.106;18.046;2024-03-29T06:32:34;99517.19;;;8.26;81.59
76730;BME280;65653;53.106;18.046;2024-03-29T06:35:01;99515.66;;;8.37;81.25
76730;BME280;65653;53.106;18.046;2024-03-29T06:37:27;99519.31;;;8.46;80.66
76730;BME280;65653;53.106;18.046;2024-03-29T06:39:54;99523.79;;;8.57;79.90
76730;BME280;65653;53.106;18.046;2024-03-29T06:42:21;99518.98;;;8.68;79.23
76730;BME280;65653;53.106;18.046;2024-03-29T06:44:48;99521.37;;;8.77;78.22
76730;BME280;65653;53.106;18.046;2024-03-29T06:47:14;99520.20;;;8.88;77.96
76730;BME280;65653;53.106;18.046;2024-03-29T06:49:41;99511.14;;;9.00;77.48
76730;BME280;65653;53.106;18.046;2024-03-29T06:52:08;99507.37;;;9.08;75.86
76730;BME280;65653;53.106;18.046;2024-03-29T06:54:34;99503.71;;;9.19;75.04
76730;BME280;65653;53.106;18.046;2024-03-29T06:57:01;99504.21;;;9.31;74.48
76730;BME280;65653;53.106;18.046;2024-03-29T06:59:29;99494.13;;;9.49;73.64
76730;BME280;65653;53.106;18.046;2024-03-29T07:01:55;99489.83;;;9.65;72.83
76730;BME280;65653;53.106;18.046;2024-03-29T07:04:23;99487.04;;;9.82;72.20
76730;BME280;65653;53.106;18.046;2024-03-29T07:06:53;99476.40;;;9.96;71.49
76730;BME280;65653;53.106;18.046;2024-03-29T07:09:21;99475.15;;;10.06;70.82
76730;BME280;65653;53.106;18.046;2024-03-29T07:11:50;99477.92;;;10.08;70.02
76730;BME280;65653;53.106;18.046;2024-03-29T07:14:18;99490.20;;;10.11;70.12
76730;BME280;65653;53.106;18.046;2024-03-29T07:16:45;99504.45;;;10.17;70.20
76730;BME280;65653;53.106;18.046;2024-03-29T07:19:12;99515.86;;;10.20;69.29
76730;BME280;65653;53.106;18.046;2024-03-29T07:21:40;99522.23;;;10.21;69.18
76730;BME280;65653;53.106;18.046;2024-03-29T07:24:06;99519.32;;;10.29;69.01
76730;BME280;65653;53.106;18.046;2024-03-29T07:26:33;99516.60;;;10.33;68.24
76730;BME280;65653;53.106;18.046;2024-03-29T07:28:59;99524.46;;;10.37;68.09
76730;BME280;65653;53.106;18.046;2024-03-29T07:31:27;99532.29;;;10.49;67.88
76730;BME280;65653;53.106;18.046;2024-03-29T07:33:53;99534.19;;;10.61;66.80
76730;BME280;65653;53.106;18.046;2024-03-29T07:36:20;99541.12;;;10.71;66.55
76730;BME280;65653;53.106;18.046;2024-03-29T07:38:49;99538.95;;;10.87;66.32
76730;BME280;65653;53.106;18.046;2024-03-29T07:41:16;99540.65;;;10.97;64.96
76730;BME280;65653;53.106;18.046;2024-03-29T07:43:55;99546.69;;;11.03;64.46
76730;BME280;65653;53.106;18.046;2024-03-29T07:46:32;99554.45;;;11.09;63.64
76730;BME280;65653;53.106;18.046;2024-03-29T07:48:58;99558.84;;;11.20;63.60
76730;BME280;65653;53.106;18.046;2024-03-29T07:51:25;99561.67;;;11.37;62.81
76730;BME280;65653;53.106;18.046;2024-03-29T07:53:51;99565.92;;;11.58;62.64
76730;BME280;65653;53.106;18.046;2024-03-29T07:56:18;99563.24;;;11.79;61.52
76730;BME280;65653;53.106;18.046;2024-03-29T07:58:44;99557.86;;;11.93;61.32
76730;BME280;65653;53.106;18.046;2024-03-29T08:01:20;99560.88;;;12.18;59.67
76730;BME280;65653;53.106;18.046;2024-03-29T08:03:47;99561.29;;;12.60;58.20
76730;BME280;65653;53.106;18.046;2024-03-29T08:06:16;99551.72;;;13.06;56.75
76730;BME280;65653;53.106;18.046;2024-03-29T08:08:45;99561.36;;;13.36;55.07
76730;BME280;65653;53.106;18.046;2024-03-29T08:11:12;99562.73;;;13.44;53.73
76730;BME280;65653;53.106;18.046;2024-03-29T08:13:39;99565.04;;;13.73;52.88
76730;BME280;65653;53.106;18.046;2024-03-29T08:16:06;99557.98;;;13.89;52.29
76730;BME280;65653;53.106;18.046;2024-03-29T08:18:33;99558.21;;;14.09;51.35
76730;BME280;65653;53.106;18.046;2024-03-29T08:21:00;99560.95;;;14.28;51.13
76730;BME280;65653;53.106;18.046;2024-03-29T08:23:27;99570.04;;;14.64;51.24
76730;BME280;65653;53.106;18.046;2024-03-29T08:25:54;99571.02;;;14.94;50.04
76730;BME280;65653;53.106;18.046;2024-03-29T08:28:22;99581.07;;;15.00;48.99
76730;BME280;65653;53.106;18.046;2024-03-29T08:31:04;99585.23;;;15.02;48.63
76730;BME280;65653;53.106;18.046;2024-03-29T08:33:37;99586.16;;;14.92;48.47
76730;BME280;65653;53.106;18.046;2024-03-29T08:39:28;99585.95;;;14.89;48.27
76730;BME280;65653;53.106;18.046;2024-03-29T08:41:55;99585.06;;;14.93;47.84
76730;BME280;65653;53.106;18.046;2024-03-29T08:44:25;99582.08;;;15.16;47.49
76730;BME280;65653;53.106;18.046;2024-03-29T08:46:56;99585.04;;;15.36;46.97
76730;BME280;65653;53.106;18.046;2024-03-29T08:49:23;99585.86;;;15.48;46.79
76730;BME280;65653;53.106;18.046;2024-03-29T08:51:52;99592.81;;;15.57;47.11
76730;BME280;65653;53.106;18.046;2024-03-29T08:54:19;99596.34;;;15.63;46.58
76730;BME280;65653;53.106;18.046;2024-03-29T08:56:47;99600.79;;;15.94;46.59
76730;BME280;65653;53.106;18.046;2024-03-29T08:59:13;99597.11;;;16.18;45.37
76730;BME280;65653;53.106;18.046;2024-03-29T09:01:46;99596.55;;;16.24;44.72
76730;BME280;65653;53.106;18.046;2024-03-29T09:04:15;99595.63;;;16.05;44.25
76730;BME280;65653;53.106;18.046;2024-03-29T09:06:42;99596.23;;;15.65;45.07
76730;BME280;65653;53.106;18.046;2024-03-29T09:09:09;99611.36;;;15.34;45.97
76730;BME280;65653;53.106;18.046;2024-03-29T09:11:38;99604.08;;;15.36;46.10
76730;BME280;65653;53.106;18.046;2024-03-29T09:14:11;99607.17;;;15.40;45.96
76730;BME280;65653;53.106;18.046;2024-03-29T09:16:45;99607.92;;;15.31;45.92
76730;BME280;65653;53.106;18.046;2024-03-29T09:19:16;99609.58;;;15.25;45.93
76730;BME280;65653;53.106;18.046;2024-03-29T09:22:02;99609.81;;;15.74;45.36
76730;BME280;65653;53.106;18.046;2024-03-29T09:24:40;99618.47;;;16.05;44.62
76730;BME280;65653;53.106;18.046;2024-03-29T09:27:06;99614.16;;;16.04;44.22
76730;BME280;65653;53.106;18.046;2024-03-29T09:29:33;99615.27;;;16.16;43.94
76730;BME280;65653;53.106;18.046;2024-03-29T09:32:02;99614.13;;;16.63;42.98
76730;BME280;65653;53.106;18.046;2024-03-29T09:34:28;99618.35;;;17.33;41.66
76730;BME280;65653;53.106;18.046;2024-03-29T09:36:58;99616.20;;;18.03;39.78
76730;BME280;65653;53.106;18.046;2024-03-29T09:39:26;99617.93;;;18.61;38.51
76730;BME280;65653;53.106;18.046;2024-03-29T09:41:55;99625.42;;;18.72;37.62
76730;BME280;65653;53.106;18.046;2024-03-29T09:44:26;99640.84;;;18.05;38.30
76730;BME280;65653;53.106;18.046;2024-03-29T09:47:03;99636.34;;;17.43;39.60
76730;BME280;65653;53.106;18.046;2024-03-29T09:49:34;99644.20;;;18.04;39.18
76730;BME280;65653;53.106;18.046;2024-03-29T09:52:01;99645.16;;;18.08;38.77
76730;BME280;65653;53.106;18.046;2024-03-29T09:54:29;99641.45;;;18.43;38.64
76730;BME280;65653;53.106;18.046;2024-03-29T09:56:57;99637.80;;;18.97;37.86
76730;BME280;65653;53.106;18.046;2024-03-29T09:59:24;99631.14;;;19.34;36.81
76730;BME280;65653;53.106;18.046;2024-03-29T10:01:57;99623.98;;;19.77;36.46
76730;BME280;65653;53.106;18.046;2024-03-29T10:04:25;99631.49;;;20.21;35.80
76730;BME280;65653;53.106;18.046;2024-03-29T10:06:51;99640.73;;;20.01;34.57
76730;BME280;65653;53.106;18.046;2024-03-29T10:09:18;99640.61;;;19.60;34.67
76730;BME280;65653;53.106;18.046;2024-03-29T10:11:46;99644.08;;;19.29;35.51
76730;BME280;65653;53.106;18.046;2024-03-29T10:14:13;99632.73;;;19.83;34.95
76730;BME280;65653;53.106;18.046;2024-03-29T10:16:40;99626.76;;;19.46;34.84
76730;BME280;65653;53.106;18.046;2024-03-29T10:19:14;99630.13;;;18.96;35.62
76730;BME280;65653;53.106;18.046;2024-03-29T10:21:41;99643.38;;;18.92;35.66
76730;BME280;65653;53.106;18.046;2024-03-29T10:24:18;99648.68;;;18.37;36.66
76730;BME280;65653;53.106;18.046;2024-03-29T10:26:46;99647.30;;;18.07;37.19
76730;BME280;65653;53.106;18.046;2024-03-29T10:29:19;99645.35;;;18.53;36.63
76730;BME280;65653;53.106;18.046;2024-03-29T10:31:46;99642.94;;;19.35;35.47
76730;BME280;65653;53.106;18.046;2024-03-29T10:34:19;99636.86;;;19.92;34.37
76730;BME280;65653;53.106;18.046;2024-03-29T10:36:47;99624.95;;;20.50;33.16
76730;BME280;65653;53.106;18.046;2024-03-29T10:39:17;99625.59;;;21.75;31.49
76730;BME280;65653;53.106;18.046;2024-03-29T10:41:46;99629.13;;;21.55;30.84
76730;BME280;65653;53.106;18.046;2024-03-29T10:44:13;99640.12;;;20.81;31.79
76730;BME280;65653;53.106;18.046;2024-03-29T10:46:56;99642.17;;;20.39;32.67
76730;BME280;65653;53.106;18.046;2024-03-29T10:49:33;99634.80;;;20.53;32.48
76730;BME280;65653;53.106;18.046;2024-03-29T10:52:05;99635.35;;;19.89;32.26
76730;BME280;65653;53.106;18.046;2024-03-29T10:54:37;99631.73;;;19.51;32.99
76730;BME280;65653;53.106;18.046;2024-03-29T10:57:19;99641.61;;;19.73;32.96
76730;BME280;65653;53.106;18.046;2024-03-29T10:59:58;99634.42;;;19.73;32.68
76730;BME280;65653;53.106;18.046;2024-03-29T11:02:57;99628.14;;;20.42;31.84
76730;BME280;65653;53.106;18.046;2024-03-29T11:05:37;99626.57;;;21.40;30.22
76730;BME280;65653;53.106;18.046;2024-03-29T11:08:08;99630.20;;;22.42;28.68
76730;BME280;65653;53.106;18.046;2024-03-29T11:10:45;99625.34;;;23.39;27.73
76730;BME280;65653;53.106;18.046;2024-03-29T11:13:33;99633.30;;;24.33;26.43
76730;BME280;65653;53.106;18.046;2024-03-29T11:16:03;99621.80;;;24.32;25.41
76730;BME280;65653;53.106;18.046;2024-03-29T11:18:30;99626.73;;;23.98;25.95
76730;BME280;65653;53.106;18.046;2024-03-29T11:21:00;99615.48;;;23.13;26.42
76730;BME280;65653;53.106;18.046;2024-03-29T11:23:39;99610.73;;;22.83;27.06
76730;BME280;65653;53.106;18.046;2024-03-29T11:26:19;99610.35;;;23.62;26.74
76730;BME280;65653;53.106;18.046;2024-03-29T11:28:51;99602.55;;;24.83;25.70
76730;BME280;65653;53.106;18.046;2024-03-29T11:31:45;99600.95;;;26.32;24.40
76730;BME280;65653;53.106;18.046;2024-03-29T11:34:13;99600.02;;;26.36;23.58
76730;BME280;65653;53.106;18.046;2024-03-29T11:36:40;99594.66;;;26.26;23.30
76730;BME280;65653;53.106;18.046;2024-03-29T11:39:33;99596.60;;;26.29;23.32
76730;BME280;65653;53.106;18.046;2024-03-29T11:42:07;99593.90;;;26.46;23.16
76730;BME280;65653;53.106;18.046;2024-03-29T11:44:36;99602.65;;;26.65;22.52
76730;BME280;65653;53.106;18.046;2024-03-29T11:47:03;99602.58;;;25.10;23.15
76730;BME280;65653;53.106;18.046;2024-03-29T11:49:55;99607.48;;;24.59;24.07
76730;BME280;65653;53.106;18.046;2024-03-29T11:52:22;99611.08;;;22.71;25.81
76730;BME280;65653;53.106;18.046;2024-03-29T11:54:48;99603.28;;;21.65;27.81
76730;BME280;65653;53.106;18.046;2024-03-29T11:57:33;99608.38;;;21.68;27.81
76730;BME280;65653;53.106;18.046;2024-03-29T12:00:24;99606.95;;;22.70;26.94
76730;BME280;65653;53.106;18.046;2024-03-29T12:03:05;99606.70;;;23.47;26.09
76730;BME280;65653;53.106;18.046;2024-03-29T12:05:56;99608.05;;;23.79;25.96
76730;BME280;65653;53.106;18.046;2024-03-29T12:11:33;99616.48;;;23.37;24.98
76730;BME280;65653;53.106;18.046;2024-03-29T12:14:00;99615.05;;;22.75;26.08
76730;BME280;65653;53.106;18.046;2024-03-29T12:16:30;99613.61;;;22.80;25.74
76730;BME280;65653;53.106;18.046;2024-03-29T12:18:57;99610.70;;;22.99;25.70
76730;BME280;65653;53.106;18.046;2024-03-29T12:21:24;99615.39;;;23.16;25.67
76730;BME280;65653;53.106;18.046;2024-03-29T12:23:55;99619.92;;;23.25;25.54
76730;BME280;65653;53.106;18.046;2024-03-29T12:26:27;99613.07;;;23.89;24.90
76730;BME280;65653;53.106;18.046;2024-03-29T12:28:57;99610.91;;;24.19;24.58
76730;BME280;65653;53.106;18.046;2024-03-29T12:31:28;99603.90;;;24.19;24.96
76730;BME280;65653;53.106;18.046;2024-03-29T12:33:56;99604.80;;;24.76;24.46
76730;BME280;65653;53.106;18.046;2024-03-29T12:36:31;99603.15;;;24.75;23.79
76730;BME280;65653;53.106;18.046;2024-03-29T12:39:12;99608.05;;;25.60;22.85
76730;BME280;65653;53.106;18.046;2024-03-29T12:41:41;99611.20;;;25.12;23.04
76730;BME280;65653;53.106;18.046;2024-03-29T12:44:14;99614.53;;;25.88;22.04
76730;BME280;65653;53.106;18.046;2024-03-29T12:47:15;99613.33;;;27.16;20.84
76730;BME280;65653;53.106;18.046;2024-03-29T12:49:41;99596.98;;;28.40;19.84
76730;BME280;65653;53.106;18.046;2024-03-29T12:52:09;99603.47;;;29.00;19.20
76730;BME280;65653;53.106;18.046;2024-03-29T12:54:38;99588.84;;;28.60;19.02
76730;BME280;65653;53.106;18.046;2024-03-29T12:57:05;99588.73;;;27.67;19.71
76730;BME280;65653;53.106;18.046;2024-03-29T12:59:53;99586.60;;;24.99;21.83
76730;BME280;65653;53.106;18.046;2024-03-29T13:02:21;99583.49;;;23.72;23.33
76730;BME280;65653;53.106;18.046;2024-03-29T13:04:52;99576.06;;;24.69;22.54
76730;BME280;65653;53.106;18.046;2024-03-29T13:07:21;99574.65;;;25.21;22.14
76730;BME280;65653;53.106;18.046;2024-03-29T13:09:50;99574.79;;;24.06;22.79
76730;BME280;65653;53.106;18.046;2024-03-29T13:12:16;99590.13;;;22.90;23.78